KPTW 191754Z AUTO VRB04KT 7SM SCT032 31/23 A3001 RMK AO2 SLP156 T03060233 10311 20217 57007 PWINO $